Time;durP1;ratioP1;P1;durP2;ratioP2;P2;SDS_P1;SDS_P2;PMS_P1;PMS_P2;Temp;Humidity;BMP_temperature;BMP_pressure;BME280_temperature;BME280_humidity;BME280_pressure;Samples;Min_cycle;Max_cycle;Signal;HPM_P1;HPM_P2
2022/03/09 00:00:14;;;;;;;0.90;0.80;;;1.90;97.10;;;;;;4920045;29;20200;-71
2022/03/09 00:02:40;;;;;;;0.70;0.50;;;1.80;97.20;;;;;;4920166;29;20206;-70
2022/03/09 00:05:06;;;;;;;2.30;2.17;;;1.80;98.20;;;;;;4920733;29;20196;-71
2022/03/09 00:07:32;;;;;;;2.90;1.67;;;1.80;99.90;;;;;;4920207;29;20585;-71
2022/03/09 00:09:57;;;;;;;0.90;0.80;;;1.70;99.90;;;;;;4920423;29;20446;-70
2022/03/09 00:12:23;;;;;;;1.23;0.80;;;1.70;99.90;;;;;;4920272;29;20538;-70
2022/03/09 00:14:48;;;;;;;0.70;0.50;;;1.70;99.90;;;;;;4920152;29;20530;-70
2022/03/09 00:17:14;;;;;;;1.23;1.13;;;1.80;99.90;;;;;;4919756;29;20167;-71
2022/03/09 00:19:39;;;;;;;0.70;0.50;;;1.80;99.90;;;;;;4919694;29;20525;-71
2022/03/09 00:22:05;;;;;;;1.63;1.53;;;1.80;99.90;;;;;;4919220;29;20701;-70
2022/03/09 00:24:32;;;;;;;0.70;0.50;;;1.80;99.90;;;;;;4918672;29;20560;-70
2022/03/09 00:26:59;;;;;;;0.70;0.57;;;1.80;99.90;;;;;;4919314;29;20459;-70
2022/03/09 00:29:25;;;;;;;0.93;0.83;;;1.70;99.90;;;;;;4919526;29;20470;-70
2022/03/09 00:31:51;;;;;;;0.70;0.50;;;1.70;99.90;;;;;;4919486;29;20466;-71
2022/03/09 00:34:17;;;;;;;0.70;0.50;;;1.70;99.90;;;;;;4919516;29;20526;-71
2022/03/09 00:36:43;;;;;;;0.70;0.50;;;1.70;99.90;;;;;;4920443;29;20929;-71
2022/03/09 00:39:09;;;;;;;0.70;0.47;;;1.70;99.90;;;;;;4918176;29;20232;-70
2022/03/09 00:41:35;;;;;;;1.30;1.20;;;1.60;99.90;;;;;;4919137;29;20256;-71
2022/03/09 00:44:01;;;;;;;0.70;0.50;;;1.60;99.90;;;;;;4919497;29;20480;-70
2022/03/09 00:46:26;;;;;;;0.70;0.50;;;1.50;99.90;;;;;;4919274;29;20206;-70
2022/03/09 00:48:52;;;;;;;0.70;0.50;;;1.50;99.90;;;;;;4918808;29;20412;-71
2022/03/09 00:51:17;;;;;;;0.70;0.40;;;1.50;99.90;;;;;;4930402;28;20180;-71
2022/03/09 00:53:43;;;;;;;0.80;0.70;;;1.40;99.90;;;;;;4899663;29;20196;-70
2022/03/09 00:56:08;;;;;;;0.70;0.50;;;1.40;99.90;;;;;;4899087;29;20187;-70
2022/03/09 00:58:34;;;;;;;1.77;1.67;;;1.40;99.90;;;;;;4898832;29;20184;-70
2022/03/09 01:00:59;;;;;;;2.80;2.30;;;1.50;99.90;;;;;;4900077;29;20237;-71
2022/03/09 01:03:25;;;;;;;0.70;0.50;;;1.40;99.90;;;;;;4918242;29;20241;-71
2022/03/09 01:05:50;;;;;;;0.80;0.57;;;1.40;99.90;;;;;;4918885;29;20210;-70
2022/03/09 01:08:16;;;;;;;0.70;0.50;;;1.40;99.90;;;;;;4918864;29;20206;-70
2022/03/09 01:10:41;;;;;;;0.80;0.70;;;1.40;99.90;;;;;;4933407;29;20643;-71
2022/03/09 01:13:07;;;;;;;0.70;0.50;;;1.40;99.90;;;;;;4918296;29;20245;-70
2022/03/09 01:15:33;;;;;;;0.70;0.50;;;1.40;99.90;;;;;;4933259;28;20664;-71
2022/03/09 01:17:59;;;;;;;0.90;0.60;;;1.40;99.90;;;;;;4918148;29;20176;-71
2022/03/09 01:20:24;;;;;;;0.70;0.60;;;1.40;99.90;;;;;;4918792;29;20412;-70
2022/03/09 01:22:52;;;;;;;3.17;2.50;;;1.40;99.90;;;;;;4918901;29;20520;-70
2022/03/09 01:25:18;;;;;;;0.70;0.50;;;1.50;99.90;;;;;;4918551;29;20241;-71
2022/03/09 01:27:44;;;;;;;0.97;0.80;;;1.40;99.90;;;;;;4918244;29;20802;-71
2022/03/09 01:30:10;;;;;;;0.70;0.50;;;1.40;99.90;;;;;;4933269;29;20180;-71
2022/03/09 01:32:35;;;;;;;0.70;0.50;;;1.40;99.90;;;;;;4917003;29;20196;-71
2022/03/09 01:35:01;;;;;;;0.70;0.50;;;1.40;99.90;;;;;;4917941;29;20425;-70
2022/03/09 01:37:27;;;;;;;0.70;0.60;;;1.40;99.90;;;;;;4916685;29;20178;-70
2022/03/09 01:39:52;;;;;;;0.70;0.40;;;1.40;99.90;;;;;;4917436;29;20436;-71
2022/03/09 01:42:18;;;;;;;0.70;0.47;;;1.40;99.90;;;;;;4918590;29;20661;-70
2022/03/09 01:44:44;;;;;;;1.33;1.23;;;1.40;99.90;;;;;;4917666;29;20197;-71
2022/03/09 01:47:09;;;;;;;0.70;0.50;;;1.40;99.90;;;;;;4917581;29;20212;-71
2022/03/09 01:49:36;;;;;;;4.13;3.83;;;1.40;99.90;;;;;;4917204;29;20182;-71
2022/03/09 01:52:02;;;;;;;0.70;0.43;;;1.40;99.90;;;;;;4919035;29;20190;-71
2022/03/09 01:54:29;;;;;;;0.70;0.50;;;1.50;99.90;;;;;;4918445;29;20479;-70
2022/03/09 01:56:55;;;;;;;0.70;0.40;;;1.40;99.90;;;;;;4919063;29;20417;-71
2022/03/09 01:59:21;;;;;;;0.70;0.60;;;1.40;99.90;;;;;;4917419;29;20415;-70
2022/03/09 02:01:47;;;;;;;0.80;0.80;;;1.50;99.90;;;;;;4918304;29;20412;-71
2022/03/09 02:04:13;;;;;;;0.70;0.50;;;1.40;99.90;;;;;;4917694;29;20194;-71
2022/03/09 02:06:39;;;;;;;0.80;0.70;;;1.40;99.90;;;;;;4917330;29;20774;-71
2022/03/09 02:11:51;;;;;;;0.90;0.73;;;1.50;99.90;;;;;;4917094;29;20983;-71
2022/03/09 02:14:35;;;;;;;0.70;0.60;;;1.50;99.90;;;;;;4916847;29;20825;-71
2022/03/09 02:17:03;;;;;;;0.70;0.50;;;1.50;99.90;;;;;;4918279;29;20402;-71
2022/03/09 02:19:29;;;;;;;0.80;0.60;;;1.50;99.90;;;;;;4918554;29;20433;-71
2022/03/09 02:22:01;;;;;;;0.70;0.50;;;1.40;99.90;;;;;;4918898;29;20406;-71
2022/03/09 02:24:27;;;;;;;0.70;0.40;;;1.40;99.90;;;;;;4918079;29;20452;-71
2022/03/09 02:26:53;;;;;;;1.37;1.27;;;1.40;99.90;;;;;;4933150;28;20422;-71
2022/03/09 02:29:18;;;;;;;0.70;0.50;;;1.40;99.90;;;;;;4917444;29;20181;-70
2022/03/09 02:31:44;;;;;;;1.10;1.00;;;1.40;99.90;;;;;;4917493;29;20175;-71
2022/03/09 02:34:09;;;;;;;1.17;1.07;;;1.30;99.90;;;;;;4915040;29;20197;-70
2022/03/09 02:36:35;;;;;;;0.70;0.40;;;1.30;99.90;;;;;;4916198;29;20168;-70
2022/03/09 02:39:00;;;;;;;0.77;0.60;;;1.30;99.90;;;;;;4916870;29;20199;-71
2022/03/09 02:41:33;;;;;;;1.53;1.43;;;1.20;99.90;;;;;;4916914;29;20178;-71
2022/03/09 02:44:02;;;;;;;2.70;1.47;;;1.20;99.90;;;;;;4916841;29;20203;-71
2022/03/09 02:46:28;;;;;;;1.87;1.10;;;1.20;99.90;;;;;;4915880;29;20416;-71
2022/03/09 02:48:53;;;;;;;0.70;0.50;;;1.10;99.90;;;;;;4916438;29;20850;-71
2022/03/09 02:51:19;;;;;;;0.70;0.40;;;1.10;99.90;;;;;;4916610;29;20202;-71
2022/03/09 02:53:45;;;;;;;0.70;0.50;;;1.10;99.90;;;;;;4916323;29;20192;-71
2022/03/09 02:56:10;;;;;;;4.17;3.90;;;1.00;99.90;;;;;;4916963;29;20174;-71
2022/03/09 02:58:36;;;;;;;0.80;0.77;;;1.00;99.90;;;;;;4916378;29;20175;-71
2022/03/09 03:01:02;;;;;;;0.70;0.50;;;0.90;99.90;;;;;;4916719;29;20660;-70
2022/03/09 03:03:27;;;;;;;0.80;0.60;;;0.90;99.90;;;;;;4927673;28;20209;-71
2022/03/09 03:05:53;;;;;;;0.70;0.40;;;0.90;99.90;;;;;;4898066;29;20460;-71
2022/03/09 03:08:18;;;;;;;0.70;0.50;;;0.80;99.90;;;;;;4897808;29;20215;-71
2022/03/09 03:10:44;;;;;;;1.20;1.03;;;0.80;99.90;;;;;;4911897;29;20649;-70
2022/03/09 03:13:09;;;;;;;0.70;0.40;;;0.70;99.90;;;;;;4916777;29;20652;-71
2022/03/09 03:15:35;;;;;;;0.87;0.77;;;0.70;99.90;;;;;;4916720;29;20178;-71
2022/03/09 03:18:01;;;;;;;0.90;0.70;;;0.70;99.90;;;;;;4916635;29;20183;-71
2022/03/09 03:20:27;;;;;;;1.00;0.83;;;0.70;99.90;;;;;;4916697;29;20188;-71
2022/03/09 03:22:53;;;;;;;0.70;0.70;;;0.60;99.90;;;;;;4915444;29;20437;-71
2022/03/09 03:25:18;;;;;;;0.87;0.77;;;0.60;99.90;;;;;;4916783;29;20453;-71
2022/03/09 03:27:44;;;;;;;0.70;0.50;;;0.60;99.90;;;;;;4916314;29;20207;-71
2022/03/09 03:30:10;;;;;;;0.70;0.50;;;0.50;99.90;;;;;;4916337;29;20181;-71
2022/03/09 03:32:35;;;;;;;0.70;0.43;;;0.50;99.90;;;;;;4916547;29;20180;-71
2022/03/09 03:35:01;;;;;;;0.70;0.50;;;0.50;99.90;;;;;;4915436;29;20924;-71
2022/03/09 03:37:27;;;;;;;0.70;0.50;;;0.50;99.90;;;;;;4916515;29;20185;-71
2022/03/09 03:39:52;;;;;;;0.80;0.80;;;0.50;99.90;;;;;;4916369;29;20180;-71
2022/03/09 03:42:18;;;;;;;0.70;0.50;;;0.50;99.90;;;;;;4916612;29;20265;-71
2022/03/09 03:44:43;;;;;;;0.70;0.60;;;0.50;99.90;;;;;;4930829;28;20233;-71
2022/03/09 03:47:09;;;;;;;0.70;0.50;;;0.50;99.90;;;;;;4916240;29;20183;-71
2022/03/09 03:49:34;;;;;;;0.70;0.50;;;0.50;99.90;;;;;;4916240;29;20165;-71
2022/03/09 03:52:00;;;;;;;0.70;0.40;;;0.50;99.90;;;;;;4916465;29;20179;-71
2022/03/09 03:54:25;;;;;;;0.70;0.50;;;0.50;99.90;;;;;;4916511;29;20206;-71
2022/03/09 03:56:51;;;;;;;0.70;0.43;;;0.50;99.90;;;;;;4916837;29;20548;-71
2022/03/09 03:59:16;;;;;;;0.70;0.40;;;0.60;99.90;;;;;;4919994;29;20174;-71
2022/03/09 04:01:42;;;;;;;0.70;0.50;;;0.60;99.90;;;;;;4919861;29;20173;-71
2022/03/09 04:04:07;;;;;;;0.70;0.50;;;0.60;99.90;;;;;;4919600;29;20199;-71
2022/03/09 04:06:33;;;;;;;0.70;0.40;;;0.60;99.90;;;;;;4934512;28;20179;-71
2022/03/09 04:08:58;;;;;;;0.70;0.50;;;0.60;99.90;;;;;;4934116;28;20251;-71
2022/03/09 04:11:24;;;;;;;0.70;0.60;;;0.70;99.90;;;;;;4919901;29;20164;-71
2022/03/09 04:13:49;;;;;;;0.70;0.50;;;0.70;99.90;;;;;;4934326;28;20190;-71
2022/03/09 04:16:15;;;;;;;0.70;0.40;;;0.70;99.90;;;;;;4918364;29;20176;-71
2022/03/09 04:18:40;;;;;;;0.70;0.50;;;0.70;99.90;;;;;;4919344;29;20169;-71
2022/03/09 04:21:06;;;;;;;1.33;1.23;;;0.70;99.90;;;;;;4919431;29;20180;-71
2022/03/09 04:23:32;;;;;;;0.90;0.70;;;0.70;99.90;;;;;;4919431;29;20206;-71
2022/03/09 04:25:57;;;;;;;0.70;0.50;;;0.70;99.90;;;;;;4919567;29;20290;-71
2022/03/09 04:28:23;;;;;;;1.17;1.07;;;0.70;99.90;;;;;;4933576;29;20183;-71
2022/03/09 04:30:49;;;;;;;0.70;0.50;;;0.70;99.90;;;;;;4919522;29;20173;-71
2022/03/09 04:33:14;;;;;;;0.80;0.60;;;0.60;99.90;;;;;;4919195;29;20557;-71
2022/03/09 04:35:40;;;;;;;0.87;0.87;;;0.60;99.90;;;;;;4919423;29;20408;-71
2022/03/09 04:38:05;;;;;;;0.70;0.40;;;0.60;99.90;;;;;;4918951;29;20645;-71
2022/03/09 04:40:32;;;;;;;0.70;0.40;;;0.60;99.90;;;;;;4919291;29;20190;-71
2022/03/09 04:42:58;;;;;;;0.80;0.60;;;0.60;99.90;;;;;;4919140;29;20188;-71
2022/03/09 04:45:23;;;;;;;13.90;2.60;;;0.50;99.90;;;;;;4919261;29;20454;-70
2022/03/09 04:47:49;;;;;;;0.70;0.50;;;0.50;99.90;;;;;;4919200;29;20176;-71
2022/03/09 04:50:14;;;;;;;0.70;0.60;;;0.50;99.90;;;;;;4919086;29;20642;-71
2022/03/09 04:52:40;;;;;;;0.70;0.50;;;0.50;99.90;;;;;;4919049;29;20556;-71
2022/03/09 04:55:06;;;;;;;0.70;0.50;;;0.40;99.90;;;;;;4919069;29;20177;-71
2022/03/09 04:57:34;;;;;;;0.87;0.80;;;0.40;99.90;;;;;;4918894;29;20261;-70
2022/03/09 04:59:59;;;;;;;1.03;0.87;;;0.40;99.90;;;;;;4918733;29;20468;-71
2022/03/09 05:02:25;;;;;;;0.70;0.47;;;0.30;99.90;;;;;;4918684;29;20416;-71
2022/03/09 05:04:51;;;;;;;2.23;2.03;;;0.30;99.90;;;;;;4919232;29;20700;-71
2022/03/09 05:07:16;;;;;;;0.70;0.60;;;0.30;99.90;;;;;;4918281;29;20555;-70
2022/03/09 05:09:41;;;;;;;0.70;0.50;;;0.30;99.90;;;;;;4917448;29;20174;-71
2022/03/09 05:12:07;;;;;;;0.70;0.50;;;0.20;99.90;;;;;;4917904;29;20163;-71
2022/03/09 05:14:34;;;;;;;0.87;0.87;;;0.20;99.90;;;;;;4917962;29;20221;-70
2022/03/09 05:16:59;;;;;;;0.93;0.80;;;0.20;99.90;;;;;;4917978;29;20410;-71
2022/03/09 05:19:25;;;;;;;0.70;0.50;;;0.20;99.90;;;;;;4917694;29;20500;-71
2022/03/09 05:21:50;;;;;;;4.73;1.13;;;0.20;99.90;;;;;;4918122;29;20203;-71
2022/03/09 05:24:17;;;;;;;0.70;0.50;;;0.20;99.90;;;;;;4917765;29;20250;-71
2022/03/09 05:26:46;;;;;;;0.70;0.40;;;0.20;99.90;;;;;;4917890;29;20256;-71
2022/03/09 05:29:12;;;;;;;0.77;0.63;;;0.20;99.90;;;;;;4916555;29;20407;-71
2022/03/09 05:31:38;;;;;;;0.70;0.50;;;0.20;99.90;;;;;;4917935;29;20404;-70
2022/03/09 05:34:03;;;;;;;0.70;0.50;;;0.10;99.90;;;;;;4917621;29;20484;-71
2022/03/09 05:36:29;;;;;;;0.70;0.40;;;0.10;99.90;;;;;;4917530;29;20669;-70
2022/03/09 05:38:54;;;;;;;0.70;0.50;;;0.00;99.90;;;;;;4916460;29;20198;-70
2022/03/09 05:41:21;;;;;;;0.70;0.40;;;0.00;99.90;;;;;;4917924;29;20164;-70
2022/03/09 05:43:48;;;;;;;1.77;0.70;;;0.00;99.90;;;;;;4917862;29;20676;-71
2022/03/09 05:46:14;;;;;;;0.70;0.40;;;0.00;99.90;;;;;;4916228;29;20516;-71
2022/03/09 05:48:39;;;;;;;0.70;0.40;;;0.00;99.90;;;;;;4917327;29;20416;-71
2022/03/09 05:51:05;;;;;;;0.70;0.40;;;0.00;99.90;;;;;;4917885;29;20169;-71
2022/03/09 05:53:30;;;;;;;0.70;0.50;;;-0.10;99.90;;;;;;4917522;29;20609;-71
2022/03/09 05:55:56;;;;;;;0.70;0.50;;;-0.10;99.90;;;;;;4917686;29;20578;-71
2022/03/09 05:58:21;;;;;;;0.70;0.40;;;-0.10;99.90;;;;;;4917174;29;20168;-71
2022/03/09 06:00:47;;;;;;;0.70;0.60;;;-0.10;99.90;;;;;;4917222;29;20202;-71
2022/03/09 06:03:13;;;;;;;0.70;0.47;;;-0.10;99.90;;;;;;4932219;28;20243;-71
2022/03/09 06:05:38;;;;;;;0.70;0.60;;;-0.10;99.90;;;;;;4917541;29;20698;-71
2022/03/09 06:08:04;;;;;;;0.70;0.40;;;-0.10;99.90;;;;;;4917179;29;20179;-70
2022/03/09 06:10:29;;;;;;;0.70;0.50;;;-0.10;99.90;;;;;;4917147;29;20207;-70
2022/03/09 06:12:55;;;;;;;0.70;0.50;;;-0.10;99.90;;;;;;4917465;29;20197;-71
2022/03/09 06:15:20;;;;;;;0.70;0.50;;;0.00;99.90;;;;;;4931948;29;20192;-71
2022/03/09 06:17:49;;;;;;;0.70;0.50;;;0.00;99.90;;;;;;4931906;29;20239;-71
2022/03/09 06:20:20;;;;;;;0.80;0.80;;;0.00;99.90;;;;;;4917014;29;20416;-71
2022/03/09 06:22:46;;;;;;;0.70;0.40;;;0.10;99.90;;;;;;4931522;29;20483;-71
2022/03/09 06:25:14;;;;;;;0.70;0.60;;;0.10;99.90;;;;;;4917347;29;20570;-71
2022/03/09 06:27:43;;;;;;;1.07;1.07;;;0.10;99.90;;;;;;4931669;28;20182;-70
2022/03/09 06:30:10;;;;;;;0.70;0.40;;;0.10;99.90;;;;;;4917423;29;20413;-71
2022/03/09 06:32:36;;;;;;;0.70;0.40;;;0.10;99.90;;;;;;4931667;28;20466;-71
2022/03/09 06:35:04;;;;;;;0.70;0.40;;;0.20;99.90;;;;;;4931578;28;20446;-70
2022/03/09 06:37:30;;;;;;;0.70;0.50;;;0.20;99.90;;;;;;4916895;29;20838;-71
2022/03/09 06:39:57;;;;;;;0.70;0.40;;;0.30;99.90;;;;;;4931659;28;20419;-71
2022/03/09 06:42:23;;;;;;;0.70;0.47;;;0.30;99.90;;;;;;4915738;29;20929;-71
2022/03/09 06:44:49;;;;;;;0.70;0.50;;;0.40;99.90;;;;;;4916815;29;20468;-71
2022/03/09 06:47:14;;;;;;;0.83;0.83;;;0.40;99.90;;;;;;4931720;28;20564;-70
2022/03/09 06:49:40;;;;;;;0.70;0.50;;;0.50;99.90;;;;;;4917117;29;20229;-71
2022/03/09 06:52:06;;;;;;;0.80;0.50;;;0.50;99.90;;;;;;4931836;29;20175;-71
2022/03/09 06:54:31;;;;;;;0.70;0.40;;;0.60;99.90;;;;;;4916937;29;20703;-71
2022/03/09 06:56:57;;;;;;;2.00;1.80;;;0.70;99.90;;;;;;4917016;29;20419;-71
2022/03/09 06:59:22;;;;;;;2.60;1.10;;;0.80;99.90;;;;;;4916657;29;20185;-71
2022/03/09 07:01:48;;;;;;;0.90;0.83;;;0.80;99.90;;;;;;4916992;29;20233;-71
2022/03/09 07:04:13;;;;;;;0.70;0.60;;;0.90;99.90;;;;;;4916869;29;20195;-71
2022/03/09 07:06:39;;;;;;;0.70;0.50;;;1.00;99.90;;;;;;4916619;29;20180;-71
2022/03/09 07:09:05;;;;;;;0.70;0.50;;;1.10;99.90;;;;;;4916671;29;20214;-71
2022/03/09 07:11:31;;;;;;;0.80;0.60;;;1.20;99.90;;;;;;4931083;28;20179;-71
2022/03/09 07:13:57;;;;;;;0.70;0.50;;;1.30;99.90;;;;;;4916655;29;20476;-71
2022/03/09 07:16:22;;;;;;;0.70;0.40;;;1.40;99.90;;;;;;4916893;29;20174;-71
2022/03/09 07:18:48;;;;;;;1.63;1.53;;;1.50;99.90;;;;;;4915470;29;20421;-71
2022/03/09 07:21:13;;;;;;;3.27;3.07;;;1.70;99.90;;;;;;4916877;29;20544;-71
2022/03/09 07:23:39;;;;;;;0.70;0.50;;;1.80;99.90;;;;;;4916579;29;20291;-71
2022/03/09 07:26:05;;;;;;;0.70;0.50;;;1.90;99.90;;;;;;4916775;29;20199;-71
2022/03/09 07:28:31;;;;;;;0.70;0.50;;;2.10;99.90;;;;;;4916353;29;20438;-71
2022/03/09 07:30:57;;;;;;;0.97;0.87;;;2.30;99.90;;;;;;4916808;29;20185;-71
2022/03/09 07:33:23;;;;;;;0.70;0.50;;;2.40;99.90;;;;;;4919488;29;20351;-71
2022/03/09 07:35:48;;;;;;;0.70;0.50;;;2.60;99.90;;;;;;4920527;29;20979;-71
2022/03/09 07:38:14;;;;;;;0.80;0.70;;;2.80;99.90;;;;;;4920612;29;20614;-71
2022/03/09 07:40:41;;;;;;;0.70;0.50;;;3.20;99.90;;;;;;4920208;29;20182;-71
2022/03/09 07:43:06;;;;;;;0.80;0.60;;;3.90;99.90;;;;;;4920292;29;20544;-71
2022/03/09 07:45:32;;;;;;;1.83;1.73;;;4.80;99.90;;;;;;4920263;29;20488;-71
2022/03/09 07:47:58;;;;;;;0.70;0.50;;;5.80;99.90;;;;;;4934743;28;20227;-71
2022/03/09 07:50:23;;;;;;;0.77;0.63;;;6.80;99.00;;;;;;4920193;29;20412;-71
2022/03/09 07:52:49;;;;;;;3.57;1.97;;;7.70;91.90;;;;;;4920175;29;20223;-71
2022/03/09 07:55:15;;;;;;;4.17;0.90;;;8.70;88.60;;;;;;4920407;29;20168;-71
2022/03/09 07:57:40;;;;;;;1.93;1.13;;;9.50;78.10;;;;;;4919928;29;20175;-71
2022/03/09 08:00:07;;;;;;;2.50;2.30;;;10.20;71.40;;;;;;4920365;29;20171;-71
2022/03/09 08:02:33;;;;;;;0.80;0.60;;;10.80;64.10;;;;;;4920024;29;20285;-72
2022/03/09 08:04:58;;;;;;;1.30;1.20;;;11.40;62.30;;;;;;4919644;29;20949;-72
2022/03/09 08:07:24;;;;;;;0.90;0.73;;;12.10;61.60;;;;;;4935020;28;20172;-72
2022/03/09 08:09:49;;;;;;;1.53;1.37;;;12.80;56.80;;;;;;4919825;29;20258;-72
2022/03/09 08:12:15;;;;;;;1.00;0.80;;;13.30;53.30;;;;;;4920150;29;20187;-72
2022/03/09 08:14:41;;;;;;;1.20;1.10;;;13.80;51.10;;;;;;4919763;29;20191;-72
2022/03/09 08:17:06;;;;;;;2.13;0.90;;;14.30;49.70;;;;;;4918493;29;20526;-72
2022/03/09 08:19:32;;;;;;;2.93;1.87;;;14.80;46.70;;;;;;4931065;28;20214;-72
2022/03/09 08:21:57;;;;;;;1.60;1.50;;;15.20;45.90;;;;;;4915589;29;20188;-72
2022/03/09 08:24:23;;;;;;;2.40;1.50;;;15.60;44.40;;;;;;4901130;29;20776;-72
2022/03/09 08:26:49;;;;;;;2.90;1.43;;;16.10;42.90;;;;;;4915429;29;20208;-72
2022/03/09 08:29:15;;;;;;;3.93;1.67;;;16.50;42.00;;;;;;4919721;29;20196;-72
2022/03/09 08:31:40;;;;;;;4.83;1.80;;;17.00;41.90;;;;;;4900780;29;20487;-72
2022/03/09 08:34:06;;;;;;;3.30;2.50;;;17.60;40.70;;;;;;4900509;29;20196;-70
2022/03/09 08:36:31;;;;;;;3.10;1.30;;;18.10;39.80;;;;;;4900172;29;20207;-70
2022/03/09 08:38:57;;;;;;;2.07;1.90;;;18.60;38.00;;;;;;4900068;29;20180;-70
2022/03/09 08:41:26;;;;;;;2.13;1.93;;;18.90;37.20;;;;;;4908049;29;20176;-70
2022/03/09 08:43:52;;;;;;;1.43;1.33;;;19.20;36.80;;;;;;4918377;29;20192;-70
2022/03/09 08:46:18;;;;;;;2.30;1.20;;;19.60;36.00;;;;;;4918592;29;20467;-70
2022/03/09 08:48:45;;;;;;;1.30;1.00;;;20.00;36.50;;;;;;4918215;29;20171;-70
2022/03/09 08:51:11;;;;;;;2.50;1.47;;;20.30;35.30;;;;;;4918557;29;20164;-70
2022/03/09 08:53:36;;;;;;;3.63;1.60;;;20.60;34.20;;;;;;4917641;29;20481;-70
2022/03/09 08:56:03;;;;;;;4.83;2.93;;;20.90;33.50;;;;;;4917920;29;20231;-70
2022/03/09 08:58:28;;;;;;;1.43;1.33;;;21.00;33.20;;;;;;4918009;29;20242;-70
2022/03/09 09:00:54;;;;;;;2.13;1.53;;;21.50;33.80;;;;;;4917991;29;20933;-70
2022/03/09 09:03:19;;;;;;;2.27;2.00;;;21.90;33.00;;;;;;4917913;29;20290;-70
2022/03/09 09:05:45;;;;;;;2.30;2.10;;;22.20;32.00;;;;;;4918415;29;20203;-70
2022/03/09 09:08:11;;;;;;;3.10;1.70;;;22.60;31.50;;;;;;4918643;29;20188;-70
2022/03/09 09:10:37;;;;;;;1.30;1.20;;;22.70;31.00;;;;;;4919378;29;20913;-70
2022/03/09 09:13:03;;;;;;;3.87;1.53;;;23.00;31.00;;;;;;4919332;29;20568;-70
2022/03/09 09:15:29;;;;;;;3.80;2.10;;;23.30;30.50;;;;;;4919273;29;20407;-71
2022/03/09 09:18:02;;;;;;;2.40;2.20;;;23.60;30.00;;;;;;4933347;28;20494;-71
2022/03/09 09:20:29;;;;;;;1.63;1.53;;;23.70;30.00;;;;;;4918971;29;20207;-71
2022/03/09 09:22:58;;;;;;;2.60;1.70;;;24.00;29.80;;;;;;4918154;29;20471;-71
2022/03/09 09:25:25;;;;;;;2.10;1.83;;;24.40;29.80;;;;;;4919038;29;21060;-71
2022/03/09 09:27:52;;;;;;;3.30;2.83;;;24.70;29.70;;;;;;4919116;29;20415;-71
2022/03/09 09:30:18;;;;;;;2.83;2.30;;;25.10;29.70;;;;;;4919127;29;20920;-71
2022/03/09 09:32:44;;;;;;;2.73;2.23;;;25.40;29.00;;;;;;4933470;29;20436;-71
2022/03/09 09:35:12;;;;;;;2.00;1.40;;;25.60;28.60;;;;;;4919330;29;20452;-71
2022/03/09 09:37:39;;;;;;;4.70;2.73;;;25.80;28.60;;;;;;4918946;29;20407;-71
2022/03/09 09:40:07;;;;;;;2.17;2.07;;;26.20;28.80;;;;;;4919095;29;20399;-71
2022/03/09 09:42:33;;;;;;;1.83;1.73;;;26.80;28.60;;;;;;4932655;28;20919;-71
2022/03/09 09:45:00;;;;;;;1.90;1.50;;;27.20;28.30;;;;;;4916747;29;20580;-71
2022/03/09 09:47:29;;;;;;;2.10;2.00;;;27.60;27.70;;;;;;4916969;29;20415;-71
2022/03/09 09:49:58;;;;;;;2.37;2.20;;;28.00;27.70;;;;;;4916726;29;20403;-71
2022/03/09 09:52:25;;;;;;;1.90;1.80;;;28.40;27.10;;;;;;4917125;29;20890;-71
2022/03/09 09:54:53;;;;;;;2.90;2.60;;;28.80;27.10;;;;;;4916220;29;20416;-71
2022/03/09 09:57:19;;;;;;;1.83;1.30;;;28.70;25.80;;;;;;4915832;29;20424;-71
2022/03/09 09:59:45;;;;;;;2.17;1.97;;;28.50;26.00;;;;;;4916542;29;20916;-71
2022/03/09 10:02:11;;;;;;;2.13;1.93;;;28.50;26.00;;;;;;4916856;29;20187;-71
2022/03/09 10:04:40;;;;;;;2.90;1.80;;;28.60;25.80;;;;;;4916689;29;20195;-71
2022/03/09 10:07:06;;;;;;;5.60;3.93;;;28.80;25.80;;;;;;4930942;28;20423;-71
2022/03/09 10:09:41;;;;;;;2.57;2.17;;;28.80;25.80;;;;;;4916264;29;20451;-71
2022/03/09 10:12:08;;;;;;;1.50;1.40;;;28.80;25.80;;;;;;4916963;29;20913;-70
2022/03/09 10:14:41;;;;;;;3.33;2.43;;;29.00;25.40;;;;;;4917602;29;20452;-70
2022/03/09 10:17:13;;;;;;;3.37;2.73;;;28.80;25.30;;;;;;4917499;29;20415;-71
2022/03/09 10:19:41;;;;;;;1.97;1.87;;;29.00;25.40;;;;;;4916919;29;20424;-71
2022/03/09 10:22:32;;;;;;;4.67;2.67;;;29.00;25.10;;;;;;4918193;29;20462;-70
2022/03/09 10:25:17;;;;;;;3.40;2.60;;;29.00;25.10;;;;;;4917675;29;20463;-71
2022/03/09 10:27:52;;;;;;;2.37;2.17;;;29.00;25.10;;;;;;4918345;29;20415;-71
2022/03/09 10:30:21;;;;;;;1.97;1.63;;;29.40;25.70;;;;;;4918159;29;20822;-71
2022/03/09 10:32:56;;;;;;;3.20;2.13;;;29.70;25.00;;;;;;4918068;29;20449;-71
2022/03/09 10:35:31;;;;;;;3.83;2.13;;;30.20;25.00;;;;;;4918734;29;20442;-70
2022/03/09 10:38:14;;;;;;;2.60;2.10;;;30.80;25.40;;;;;;4918170;29;20773;-71
2022/03/09 10:40:49;;;;;;;5.17;2.53;;;31.20;24.70;;;;;;4917879;29;20802;-71
2022/03/09 10:43:25;;;;;;;2.47;1.73;;;31.50;24.70;;;;;;4917901;29;20431;-71
2022/03/09 10:46:12;;;;;;;3.63;2.00;;;32.20;24.70;;;;;;4916771;29;20545;-71
2022/03/09 10:48:57;;;;;;;2.90;2.60;;;32.80;24.70;;;;;;4918302;29;20913;-71
2022/03/09 10:51:34;;;;;;;2.93;2.07;;;33.20;24.10;;;;;;4918312;29;20447;-71
2022/03/09 10:54:05;;;;;;;4.80;3.60;;;33.70;23.90;;;;;;4917226;28;20503;-71
2022/03/09 10:56:32;;;;;;;3.43;2.80;;;33.40;23.60;;;;;;4917700;29;20467;-71
2022/03/09 10:59:09;;;;;;;3.43;2.20;;;33.40;23.40;;;;;;4917812;29;20408;-71
2022/03/09 11:01:35;;;;;;;2.57;2.37;;;34.10;24.00;;;;;;4918709;29;20403;-71
2022/03/09 11:04:10;;;;;;;3.00;2.23;;;33.90;22.90;;;;;;4918161;29;20434;-71
2022/03/09 11:06:36;;;;;;;3.40;2.63;;;34.60;23.40;;;;;;4918123;29;20202;-71
2022/03/09 11:09:02;;;;;;;3.97;2.87;;;35.00;23.00;;;;;;4918028;29;20431;-71
2022/03/09 11:11:28;;;;;;;2.93;2.13;;;35.70;23.50;;;;;;4932786;29;20650;-71
2022/03/09 11:13:57;;;;;;;2.60;2.40;;;36.20;23.00;;;;;;4917987;29;20591;-70
2022/03/09 11:16:23;;;;;;;3.43;2.97;;;36.70;22.50;;;;;;4918438;29;20491;-70
2022/03/09 11:18:49;;;;;;;4.13;2.83;;;37.10;22.30;;;;;;4917872;29;20431;-71
2022/03/09 11:21:16;;;;;;;3.50;3.10;;;37.40;22.40;;;;;;4917936;29;20168;-71
2022/03/09 11:23:42;;;;;;;2.60;2.40;;;38.10;22.40;;;;;;4932733;29;20435;-71
2022/03/09 11:26:19;;;;;;;3.57;3.27;;;38.60;22.00;;;;;;4918259;29;20422;-71
2022/03/09 11:28:45;;;;;;;4.90;3.40;;;38.90;21.80;;;;;;4915637;29;20238;-70
2022/03/09 11:31:14;;;;;;;2.57;2.37;;;39.20;21.60;;;;;;4917621;29;20426;-71
2022/03/09 11:33:39;;;;;;;3.63;2.90;;;39.30;21.30;;;;;;4918055;29;20427;-71
2022/03/09 11:36:20;;;;;;;2.97;2.67;;;39.80;21.50;;;;;;4918282;29;20455;-71
2022/03/09 11:38:48;;;;;;;2.57;2.30;;;39.90;21.10;;;;;;4917238;29;20164;-71
2022/03/09 11:41:18;;;;;;;2.50;2.30;;;40.30;21.40;;;;;;4917928;29;20423;-71
2022/03/09 11:43:44;;;;;;;4.20;2.90;;;40.70;21.20;;;;;;4916119;29;20913;-71
2022/03/09 11:46:10;;;;;;;2.60;2.40;;;41.20;21.20;;;;;;4917216;29;20465;-71
2022/03/09 11:48:59;;;;;;;3.33;3.07;;;41.70;21.30;;;;;;4917142;29;20634;-71
2022/03/09 11:51:26;;;;;;;3.17;2.87;;;42.00;20.50;;;;;;4917082;29;20251;-71
2022/03/09 11:53:54;;;;;;;4.73;2.93;;;42.20;20.70;;;;;;4917380;29;20431;-71
2022/03/09 11:56:37;;;;;;;3.67;3.27;;;42.50;20.90;;;;;;4917553;29;20430;-71
2022/03/09 11:59:12;;;;;;;3.30;2.73;;;42.80;20.30;;;;;;4917501;29;20379;-71
2022/03/09 12:01:57;;;;;;;4.70;3.63;;;43.10;20.60;;;;;;4918098;29;20435;-71
2022/03/09 12:04:50;;;;;;;3.67;2.80;;;43.10;20.30;;;;;;4917566;29;20467;-71
2022/03/09 12:07:33;;;;;;;4.27;2.50;;;43.40;20.30;;;;;;4917700;29;20525;-71
2022/03/09 12:10:11;;;;;;;2.63;2.43;;;43.40;20.10;;;;;;4917372;29;20406;-71
2022/03/09 12:12:38;;;;;;;4.00;3.57;;;43.80;20.40;;;;;;4917742;29;20424;-71
2022/03/09 12:15:06;;;;;;;4.60;2.90;;;44.00;20.00;;;;;;4917199;29;20877;-71
2022/03/09 12:17:38;;;;;;;3.20;2.90;;;43.60;19.20;;;;;;4917326;29;20400;-71
2022/03/09 12:20:23;;;;;;;3.13;2.83;;;43.60;19.60;;;;;;4919216;29;20415;-71
2022/03/09 12:23:01;;;;;;;2.33;2.13;;;43.90;19.90;;;;;;4935302;29;20427;-71
2022/03/09 12:25:49;;;;;;;2.93;2.20;;;44.30;19.90;;;;;;4921124;29;20412;-71
2022/03/09 12:28:27;;;;;;;3.10;2.37;;;44.30;19.20;;;;;;4920047;29;20430;-71
2022/03/09 12:30:53;;;;;;;2.63;2.40;;;44.40;19.40;;;;;;4920613;29;20913;-71
2022/03/09 12:33:26;;;;;;;2.80;2.60;;;44.50;19.60;;;;;;4920731;29;20523;-71
2022/03/09 12:35:52;;;;;;;7.63;3.17;;;44.80;19.80;;;;;;4921063;29;20538;-71
2022/03/09 12:38:18;;;;;;;3.43;2.93;;;45.20;19.60;;;;;;4921322;29;20484;-71
2022/03/09 12:40:47;;;;;;;3.60;2.93;;;45.50;19.60;;;;;;4920119;29;20740;-71
2022/03/09 12:43:16;;;;;;;4.17;2.80;;;45.80;19.10;;;;;;4920546;29;20430;-71
2022/03/09 12:45:54;;;;;;;2.73;2.53;;;46.00;19.40;;;;;;4920198;29;20519;-71
2022/03/09 12:48:21;;;;;;;3.27;3.03;;;46.00;19.10;;;;;;4919414;29;20422;-71
2022/03/09 12:50:47;;;;;;;3.27;3.00;;;46.00;18.80;;;;;;4919399;29;20398;-71
2022/03/09 12:53:19;;;;;;;3.03;2.73;;;46.10;19.20;;;;;;4919437;29;20532;-71
2022/03/09 12:55:46;;;;;;;4.77;2.90;;;46.20;19.10;;;;;;4917920;29;20478;-71